sensor_id;sensor_type;location;lat;lon;timestamp;P1;durP1;ratioP1;P2;durP2;ratioP2
19183;SDS011;9724;51.194;6.856;2023-06-14T00:00:52;11.20;;;5.50;;
19183;SDS011;9724;51.194;6.856;2023-06-14T00:03:19;10.07;;;5.43;;
19183;SDS011;9724;51.194;6.856;2023-06-14T00:05:47;9.07;;;5.20;;
19183;SDS011;9724;51.194;6.856;2023-06-14T00:08:14;7.87;;;5.27;;
19183;SDS011;9724;51.194;6.856;2023-06-14T00:10:41;5.93;;;5.33;;
19183;SDS011;9724;51.194;6.856;2023-06-14T00:13:07;8.87;;;5.53;;
19183;SDS011;9724;51.194;6.856;2023-06-14T00:15:33;7.87;;;6.10;;
19183;SDS011;9724;51.194;6.856;2023-06-14T00:18:00;8.50;;;5.77;;
19183;SDS011;9724;51.194;6.856;2023-06-14T00:20:27;9.37;;;5.73;;
19183;SDS011;9724;51.194;6.856;2023-06-14T00:22:54;7.57;;;5.60;;
19183;SDS011;9724;51.194;6.856;2023-06-14T00:25:22;9.53;;;5.57;;
19183;SDS011;9724;51.194;6.856;2023-06-14T00:27:55;10.23;;;5.57;;
19183;SDS011;9724;51.194;6.856;2023-06-14T00:30:22;6.87;;;5.23;;
19183;SDS011;9724;51.194;6.856;2023-06-14T00:32:49;10.67;;;5.10;;
19183;SDS011;9724;51.194;6.856;2023-06-14T00:35:15;9.77;;;5.57;;
19183;SDS011;9724;51.194;6.856;2023-06-14T00:37:42;11.17;;;5.77;;
19183;SDS011;9724;51.194;6.856;2023-06-14T00:40:08;9.80;;;5.57;;
19183;SDS011;9724;51.194;6.856;2023-06-14T00:42:35;10.37;;;5.50;;
19183;SDS011;9724;51.194;6.856;2023-06-14T00:45:02;6.77;;;5.43;;
19183;SDS011;9724;51.194;6.856;2023-06-14T00:47:28;7.63;;;5.57;;
19183;SDS011;9724;51.194;6.856;2023-06-14T00:49:54;12.20;;;5.53;;
19183;SDS011;9724;51.194;6.856;2023-06-14T00:52:21;10.77;;;5.97;;
19183;SDS011;9724;51.194;6.856;2023-06-14T00:54:49;6.70;;;5.60;;
19183;SDS011;9724;51.194;6.856;2023-06-14T00:57:15;9.10;;;5.77;;
19183;SDS011;9724;51.194;6.856;2023-06-14T00:59:43;8.13;;;5.77;;
19183;SDS011;9724;51.194;6.856;2023-06-14T01:02:10;10.03;;;5.83;;
19183;SDS011;9724;51.194;6.856;2023-06-14T01:04:37;9.13;;;5.53;;
19183;SDS011;9724;51.194;6.856;2023-06-14T01:07:06;8.30;;;5.90;;
19183;SDS011;9724;51.194;6.856;2023-06-14T01:09:43;7.73;;;5.80;;
19183;SDS011;9724;51.194;6.856;2023-06-14T01:12:15;8.07;;;5.60;;
19183;SDS011;9724;51.194;6.856;2023-06-14T01:14:56;9.13;;;5.50;;
19183;SDS011;9724;51.194;6.856;2023-06-14T01:17:23;13.07;;;5.87;;
19183;SDS011;9724;51.194;6.856;2023-06-14T01:19:52;6.97;;;5.57;;
19183;SDS011;9724;51.194;6.856;2023-06-14T01:22:23;11.57;;;5.70;;
19183;SDS011;9724;51.194;6.856;2023-06-14T01:24:51;6.27;;;5.63;;
19183;SDS011;9724;51.194;6.856;2023-06-14T01:27:20;10.83;;;5.43;;
19183;SDS011;9724;51.194;6.856;2023-06-14T01:29:49;10.87;;;5.97;;
19183;SDS011;9724;51.194;6.856;2023-06-14T01:32:16;9.10;;;5.70;;
19183;SDS011;9724;51.194;6.856;2023-06-14T01:34:44;7.03;;;5.50;;
19183;SDS011;9724;51.194;6.856;2023-06-14T01:37:10;8.00;;;5.53;;
19183;SDS011;9724;51.194;6.856;2023-06-14T01:39:37;9.30;;;5.70;;
19183;SDS011;9724;51.194;6.856;2023-06-14T01:42:05;10.17;;;6.07;;
19183;SDS011;9724;51.194;6.856;2023-06-14T01:44:32;7.37;;;5.40;;
19183;SDS011;9724;51.194;6.856;2023-06-14T01:46:58;9.63;;;5.80;;
19183;SDS011;9724;51.194;6.856;2023-06-14T01:49:25;10.03;;;6.10;;
19183;SDS011;9724;51.194;6.856;2023-06-14T01:51:51;10.27;;;5.60;;
19183;SDS011;9724;51.194;6.856;2023-06-14T01:54:18;9.93;;;5.63;;
19183;SDS011;9724;51.194;6.856;2023-06-14T01:56:44;8.47;;;5.57;;
19183;SDS011;9724;51.194;6.856;2023-06-14T01:59:11;8.67;;;5.67;;
19183;SDS011;9724;51.194;6.856;2023-06-14T02:01:37;7.80;;;5.50;;
19183;SDS011;9724;51.194;6.856;2023-06-14T02:04:03;7.57;;;5.57;;
19183;SDS011;9724;51.194;6.856;2023-06-14T02:06:30;6.83;;;5.33;;
19183;SDS011;9724;51.194;6.856;2023-06-14T02:08:56;7.40;;;5.80;;
19183;SDS011;9724;51.194;6.856;2023-06-14T02:11:23;8.33;;;5.87;;
19183;SDS011;9724;51.194;6.856;2023-06-14T02:13:49;10.90;;;5.60;;
19183;SDS011;9724;51.194;6.856;2023-06-14T02:16:16;9.30;;;5.97;;
19183;SDS011;9724;51.194;6.856;2023-06-14T02:18:43;9.27;;;6.10;;
19183;SDS011;9724;51.194;6.856;2023-06-14T02:21:09;8.40;;;6.00;;
19183;SDS011;9724;51.194;6.856;2023-06-14T02:23:35;9.73;;;5.80;;
19183;SDS011;9724;51.194;6.856;2023-06-14T02:26:01;12.37;;;6.13;;
19183;SDS011;9724;51.194;6.856;2023-06-14T02:28:29;9.60;;;5.67;;
19183;SDS011;9724;51.194;6.856;2023-06-14T02:30:55;11.00;;;6.33;;
19183;SDS011;9724;51.194;6.856;2023-06-14T02:33:22;8.90;;;6.53;;
19183;SDS011;9724;51.194;6.856;2023-06-14T02:35:49;7.33;;;5.87;;
19183;SDS011;9724;51.194;6.856;2023-06-14T02:38:15;7.33;;;5.93;;
19183;SDS011;9724;51.194;6.856;2023-06-14T02:40:41;9.83;;;6.10;;
19183;SDS011;9724;51.194;6.856;2023-06-14T02:43:08;6.73;;;5.73;;
19183;SDS011;9724;51.194;6.856;2023-06-14T02:45:34;8.20;;;6.00;;
19183;SDS011;9724;51.194;6.856;2023-06-14T02:48:00;9.73;;;5.90;;
19183;SDS011;9724;51.194;6.856;2023-06-14T02:50:27;8.93;;;5.90;;
19183;SDS011;9724;51.194;6.856;2023-06-14T02:52:55;9.00;;;5.97;;
19183;SDS011;9724;51.194;6.856;2023-06-14T02:55:22;8.77;;;5.77;;
19183;SDS011;9724;51.194;6.856;2023-06-14T02:57:48;11.63;;;5.73;;
19183;SDS011;9724;51.194;6.856;2023-06-14T03:00:15;8.63;;;5.77;;
19183;SDS011;9724;51.194;6.856;2023-06-14T03:02:42;9.23;;;5.77;;
19183;SDS011;9724;51.194;6.856;2023-06-14T03:05:08;8.80;;;6.17;;
19183;SDS011;9724;51.194;6.856;2023-06-14T03:07:35;10.17;;;5.60;;
19183;SDS011;9724;51.194;6.856;2023-06-14T03:10:07;11.87;;;6.20;;
19183;SDS011;9724;51.194;6.856;2023-06-14T03:12:34;14.00;;;6.40;;
19183;SDS011;9724;51.194;6.856;2023-06-14T03:15:02;7.60;;;6.10;;
19183;SDS011;9724;51.194;6.856;2023-06-14T03:17:28;9.43;;;5.90;;
19183;SDS011;9724;51.194;6.856;2023-06-14T03:19:58;8.00;;;5.40;;
19183;SDS011;9724;51.194;6.856;2023-06-14T03:22:25;6.43;;;5.70;;
19183;SDS011;9724;51.194;6.856;2023-06-14T03:24:52;10.13;;;5.60;;
19183;SDS011;9724;51.194;6.856;2023-06-14T03:27:19;8.27;;;5.37;;
19183;SDS011;9724;51.194;6.856;2023-06-14T03:29:45;7.90;;;5.30;;
19183;SDS011;9724;51.194;6.856;2023-06-14T03:32:12;11.00;;;5.70;;
19183;SDS011;9724;51.194;6.856;2023-06-14T03:34:38;6.77;;;5.33;;
19183;SDS011;9724;51.194;6.856;2023-06-14T03:37:04;7.70;;;5.13;;
19183;SDS011;9724;51.194;6.856;2023-06-14T03:39:30;8.07;;;5.63;;
19183;SDS011;9724;51.194;6.856;2023-06-14T03:41:57;7.50;;;5.50;;
19183;SDS011;9724;51.194;6.856;2023-06-14T03:44:24;8.20;;;5.07;;
19183;SDS011;9724;51.194;6.856;2023-06-14T03:46:52;14.53;;;5.70;;
19183;SDS011;9724;51.194;6.856;2023-06-14T03:49:19;9.87;;;5.30;;
19183;SDS011;9724;51.194;6.856;2023-06-14T03:51:45;6.73;;;5.83;;
19183;SDS011;9724;51.194;6.856;2023-06-14T03:54:16;9.60;;;5.50;;
19183;SDS011;9724;51.194;6.856;2023-06-14T03:57:03;9.20;;;5.63;;
19183;SDS011;9724;51.194;6.856;2023-06-14T03:59:31;7.17;;;5.53;;
19183;SDS011;9724;51.194;6.856;2023-06-14T04:01:57;9.93;;;5.83;;
19183;SDS011;9724;51.194;6.856;2023-06-14T04:04:24;10.43;;;5.73;;
19183;SDS011;9724;51.194;6.856;2023-06-14T04:06:54;8.80;;;5.60;;
19183;SDS011;9724;51.194;6.856;2023-06-14T04:09:20;9.13;;;5.80;;
19183;SDS011;9724;51.194;6.856;2023-06-14T04:11:46;8.07;;;5.30;;
19183;SDS011;9724;51.194;6.856;2023-06-14T04:14:13;11.37;;;5.97;;
19183;SDS011;9724;51.194;6.856;2023-06-14T04:16:40;7.87;;;5.50;;
19183;SDS011;9724;51.194;6.856;2023-06-14T04:19:06;7.33;;;5.90;;
19183;SDS011;9724;51.194;6.856;2023-06-14T04:21:33;11.40;;;5.70;;
19183;SDS011;9724;51.194;6.856;2023-06-14T04:24:00;8.93;;;5.73;;
19183;SDS011;9724;51.194;6.856;2023-06-14T04:26:27;9.23;;;5.70;;
19183;SDS011;9724;51.194;6.856;2023-06-14T04:28:55;8.30;;;5.40;;
19183;SDS011;9724;51.194;6.856;2023-06-14T04:31:22;9.07;;;5.47;;
19183;SDS011;9724;51.194;6.856;2023-06-14T04:33:50;8.33;;;5.20;;
19183;SDS011;9724;51.194;6.856;2023-06-14T04:36:19;14.83;;;5.67;;
19183;SDS011;9724;51.194;6.856;2023-06-14T04:38:45;11.37;;;5.07;;
19183;SDS011;9724;51.194;6.856;2023-06-14T04:41:12;7.97;;;4.90;;
19183;SDS011;9724;51.194;6.856;2023-06-14T04:43:38;7.10;;;5.10;;
19183;SDS011;9724;51.194;6.856;2023-06-14T04:46:05;7.13;;;4.60;;
19183;SDS011;9724;51.194;6.856;2023-06-14T04:48:32;5.67;;;4.50;;
19183;SDS011;9724;51.194;6.856;2023-06-14T04:50:58;10.53;;;4.37;;
19183;SDS011;9724;51.194;6.856;2023-06-14T04:53:24;5.63;;;4.70;;
19183;SDS011;9724;51.194;6.856;2023-06-14T04:55:54;7.80;;;4.77;;
19183;SDS011;9724;51.194;6.856;2023-06-14T04:58:20;5.40;;;4.90;;
19183;SDS011;9724;51.194;6.856;2023-06-14T05:00:47;18.97;;;5.20;;
19183;SDS011;9724;51.194;6.856;2023-06-14T05:03:13;5.80;;;4.50;;
19183;SDS011;9724;51.194;6.856;2023-06-14T05:05:40;6.33;;;4.27;;
19183;SDS011;9724;51.194;6.856;2023-06-14T05:08:07;5.70;;;4.13;;
19183;SDS011;9724;51.194;6.856;2023-06-14T05:10:33;17.27;;;5.03;;
19183;SDS011;9724;51.194;6.856;2023-06-14T05:13:01;8.80;;;4.37;;
19183;SDS011;9724;51.194;6.856;2023-06-14T05:15:28;7.67;;;4.50;;
19183;SDS011;9724;51.194;6.856;2023-06-14T05:17:54;9.70;;;4.00;;
19183;SDS011;9724;51.194;6.856;2023-06-14T05:20:21;11.30;;;4.33;;
19183;SDS011;9724;51.194;6.856;2023-06-14T05:22:49;8.10;;;4.63;;
19183;SDS011;9724;51.194;6.856;2023-06-14T05:25:17;9.70;;;4.33;;
19183;SDS011;9724;51.194;6.856;2023-06-14T05:27:44;9.00;;;4.63;;
19183;SDS011;9724;51.194;6.856;2023-06-14T05:30:10;11.27;;;4.87;;
19183;SDS011;9724;51.194;6.856;2023-06-14T05:32:38;10.73;;;4.47;;
19183;SDS011;9724;51.194;6.856;2023-06-14T05:35:04;10.77;;;5.10;;
19183;SDS011;9724;51.194;6.856;2023-06-14T05:37:31;6.93;;;4.60;;
19183;SDS011;9724;51.194;6.856;2023-06-14T05:39:58;9.27;;;4.63;;
19183;SDS011;9724;51.194;6.856;2023-06-14T05:42:25;13.93;;;4.23;;
19183;SDS011;9724;51.194;6.856;2023-06-14T05:44:51;11.77;;;4.73;;
19183;SDS011;9724;51.194;6.856;2023-06-14T05:47:17;7.20;;;4.20;;
19183;SDS011;9724;51.194;6.856;2023-06-14T05:49:44;7.27;;;4.80;;
19183;SDS011;9724;51.194;6.856;2023-06-14T05:52:10;10.50;;;4.50;;
19183;SDS011;9724;51.194;6.856;2023-06-14T05:54:38;7.20;;;4.17;;
19183;SDS011;9724;51.194;6.856;2023-06-14T05:57:05;13.17;;;4.20;;
19183;SDS011;9724;51.194;6.856;2023-06-14T05:59:32;4.13;;;3.73;;
19183;SDS011;9724;51.194;6.856;2023-06-14T06:01:58;9.70;;;4.33;;
19183;SDS011;9724;51.194;6.856;2023-06-14T06:04:24;8.40;;;4.10;;
19183;SDS011;9724;51.194;6.856;2023-06-14T06:06:51;9.77;;;4.00;;
19183;SDS011;9724;51.194;6.856;2023-06-14T06:09:17;9.70;;;3.87;;
19183;SDS011;9724;51.194;6.856;2023-06-14T06:11:44;5.07;;;3.93;;
19183;SDS011;9724;51.194;6.856;2023-06-14T06:14:23;7.13;;;3.83;;
19183;SDS011;9724;51.194;6.856;2023-06-14T06:16:51;10.17;;;3.63;;
19183;SDS011;9724;51.194;6.856;2023-06-14T06:19:18;7.17;;;3.90;;
19183;SDS011;9724;51.194;6.856;2023-06-14T06:21:44;6.50;;;3.87;;
19183;SDS011;9724;51.194;6.856;2023-06-14T06:24:11;13.50;;;3.90;;
19183;SDS011;9724;51.194;6.856;2023-06-14T06:26:37;5.43;;;3.53;;
19183;SDS011;9724;51.194;6.856;2023-06-14T06:29:05;4.43;;;3.33;;
19183;SDS011;9724;51.194;6.856;2023-06-14T06:31:32;5.23;;;3.77;;
19183;SDS011;9724;51.194;6.856;2023-06-14T06:33:58;11.10;;;3.60;;
19183;SDS011;9724;51.194;6.856;2023-06-14T06:36:24;4.37;;;3.50;;
19183;SDS011;9724;51.194;6.856;2023-06-14T06:38:51;6.00;;;3.40;;
19183;SDS011;9724;51.194;6.856;2023-06-14T06:41:18;7.07;;;3.43;;
19183;SDS011;9724;51.194;6.856;2023-06-14T06:43:44;11.07;;;3.90;;
19183;SDS011;9724;51.194;6.856;2023-06-14T06:46:10;8.50;;;3.23;;
19183;SDS011;9724;51.194;6.856;2023-06-14T06:48:39;7.30;;;3.20;;
19183;SDS011;9724;51.194;6.856;2023-06-14T06:51:05;4.87;;;3.37;;
19183;SDS011;9724;51.194;6.856;2023-06-14T06:53:31;9.77;;;3.10;;
19183;SDS011;9724;51.194;6.856;2023-06-14T06:56:09;6.67;;;3.00;;
19183;SDS011;9724;51.194;6.856;2023-06-14T06:58:35;4.27;;;2.83;;
19183;SDS011;9724;51.194;6.856;2023-06-14T07:01:01;8.37;;;3.00;;
19183;SDS011;9724;51.194;6.856;2023-06-14T07:03:28;3.43;;;2.50;;
19183;SDS011;9724;51.194;6.856;2023-06-14T07:05:55;3.20;;;2.37;;
19183;SDS011;9724;51.194;6.856;2023-06-14T07:08:21;4.17;;;2.37;;
19183;SDS011;9724;51.194;6.856;2023-06-14T07:10:47;4.23;;;2.30;;
19183;SDS011;9724;51.194;6.856;2023-06-14T07:13:14;5.73;;;2.13;;
19183;SDS011;9724;51.194;6.856;2023-06-14T07:15:40;4.87;;;2.60;;
19183;SDS011;9724;51.194;6.856;2023-06-14T07:18:06;3.60;;;2.43;;
19183;SDS011;9724;51.194;6.856;2023-06-14T07:20:33;3.60;;;2.10;;
19183;SDS011;9724;51.194;6.856;2023-06-14T07:23:00;4.17;;;2.33;;
19183;SDS011;9724;51.194;6.856;2023-06-14T07:25:26;3.47;;;2.40;;
19183;SDS011;9724;51.194;6.856;2023-06-14T07:27:53;2.53;;;2.37;;
19183;SDS011;9724;51.194;6.856;2023-06-14T07:30:19;2.90;;;2.20;;
19183;SDS011;9724;51.194;6.856;2023-06-14T07:32:45;3.27;;;2.80;;
19183;SDS011;9724;51.194;6.856;2023-06-14T07:35:12;10.40;;;2.93;;
19183;SDS011;9724;51.194;6.856;2023-06-14T07:37:39;6.60;;;2.43;;
19183;SDS011;9724;51.194;6.856;2023-06-14T07:40:06;3.20;;;2.20;;
19183;SDS011;9724;51.194;6.856;2023-06-14T07:42:34;3.03;;;2.63;;
19183;SDS011;9724;51.194;6.856;2023-06-14T07:45:01;3.50;;;2.27;;
19183;SDS011;9724;51.194;6.856;2023-06-14T07:47:27;8.60;;;2.27;;
19183;SDS011;9724;51.194;6.856;2023-06-14T07:49:53;2.40;;;2.20;;
19183;SDS011;9724;51.194;6.856;2023-06-14T07:52:20;3.90;;;2.30;;
19183;SDS011;9724;51.194;6.856;2023-06-14T07:54:46;2.93;;;2.00;;
19183;SDS011;9724;51.194;6.856;2023-06-14T07:57:13;2.83;;;2.20;;
19183;SDS011;9724;51.194;6.856;2023-06-14T07:59:39;3.43;;;2.03;;
19183;SDS011;9724;51.194;6.856;2023-06-14T08:02:05;7.30;;;1.93;;
19183;SDS011;9724;51.194;6.856;2023-06-14T08:04:32;2.00;;;1.90;;
19183;SDS011;9724;51.194;6.856;2023-06-14T08:06:59;3.60;;;2.03;;
19183;SDS011;9724;51.194;6.856;2023-06-14T08:09:25;2.50;;;2.17;;
19183;SDS011;9724;51.194;6.856;2023-06-14T08:11:53;3.30;;;1.90;;
19183;SDS011;9724;51.194;6.856;2023-06-14T08:14:20;6.70;;;2.03;;
19183;SDS011;9724;51.194;6.856;2023-06-14T08:16:46;1.90;;;1.80;;
19183;SDS011;9724;51.194;6.856;2023-06-14T08:19:12;6.67;;;2.03;;
19183;SDS011;9724;51.194;6.856;2023-06-14T08:21:39;4.57;;;2.10;;
19183;SDS011;9724;51.194;6.856;2023-06-14T08:24:05;5.27;;;1.80;;
19183;SDS011;9724;51.194;6.856;2023-06-14T08:26:32;3.53;;;2.00;;
19183;SDS011;9724;51.194;6.856;2023-06-14T08:28:58;4.23;;;2.00;;
19183;SDS011;9724;51.194;6.856;2023-06-14T08:31:25;2.90;;;1.53;;
19183;SDS011;9724;51.194;6.856;2023-06-14T08:33:53;2.80;;;2.60;;
19183;SDS011;9724;51.194;6.856;2023-06-14T08:36:19;1.97;;;1.87;;
19183;SDS011;9724;51.194;6.856;2023-06-14T08:38:45;7.77;;;1.93;;
19183;SDS011;9724;51.194;6.856;2023-06-14T08:41:12;2.70;;;1.90;;
19183;SDS011;9724;51.194;6.856;2023-06-14T08:43:46;5.27;;;1.90;;
19183;SDS011;9724;51.194;6.856;2023-06-14T08:46:13;4.17;;;1.83;;
19183;SDS011;9724;51.194;6.856;2023-06-14T08:48:42;11.97;;;2.37;;
19183;SDS011;9724;51.194;6.856;2023-06-14T08:51:09;6.73;;;2.00;;
19183;SDS011;9724;51.194;6.856;2023-06-14T08:53:36;7.00;;;1.80;;
19183;SDS011;9724;51.194;6.856;2023-06-14T08:56:08;4.17;;;1.83;;
19183;SDS011;9724;51.194;6.856;2023-06-14T08:58:39;5.33;;;2.07;;
19183;SDS011;9724;51.194;6.856;2023-06-14T09:01:09;6.47;;;2.10;;
19183;SDS011;9724;51.194;6.856;2023-06-14T09:03:37;1.80;;;1.70;;
19183;SDS011;9724;51.194;6.856;2023-06-14T09:06:07;2.73;;;1.90;;
19183;SDS011;9724;51.194;6.856;2023-06-14T09:08:40;6.03;;;1.90;;
19183;SDS011;9724;51.194;6.856;2023-06-14T09:11:08;6.53;;;2.23;;
19183;SDS011;9724;51.194;6.856;2023-06-14T09:13:34;19.67;;;2.60;;
19183;SDS011;9724;51.194;6.856;2023-06-14T09:16:00;10.57;;;2.27;;
19183;SDS011;9724;51.194;6.856;2023-06-14T09:18:33;11.77;;;2.27;;
19183;SDS011;9724;51.194;6.856;2023-06-14T09:21:00;15.50;;;1.90;;
19183;SDS011;9724;51.194;6.856;2023-06-14T09:23:27;10.77;;;2.67;;
19183;SDS011;9724;51.194;6.856;2023-06-14T09:25:54;1.73;;;1.50;;
19183;SDS011;9724;51.194;6.856;2023-06-14T09:28:20;4.63;;;1.77;;
19183;SDS011;9724;51.194;6.856;2023-06-14T09:30:52;2.87;;;1.60;;
19183;SDS011;9724;51.194;6.856;2023-06-14T09:33:20;2.23;;;1.70;;
19183;SDS011;9724;51.194;6.856;2023-06-14T09:35:48;6.17;;;2.07;;
19183;SDS011;9724;51.194;6.856;2023-06-14T09:38:17;4.30;;;1.90;;
19183;SDS011;9724;51.194;6.856;2023-06-14T09:40:43;7.23;;;2.00;;
19183;SDS011;9724;51.194;6.856;2023-06-14T09:43:10;10.63;;;1.87;;
19183;SDS011;9724;51.194;6.856;2023-06-14T09:45:37;3.10;;;1.93;;
19183;SDS011;9724;51.194;6.856;2023-06-14T09:48:05;7.60;;;1.70;;
19183;SDS011;9724;51.194;6.856;2023-06-14T09:50:33;6.63;;;1.70;;
19183;SDS011;9724;51.194;6.856;2023-06-14T09:53:02;5.67;;;1.73;;
19183;SDS011;9724;51.194;6.856;2023-06-14T09:55:29;3.70;;;1.90;;
19183;SDS011;9724;51.194;6.856;2023-06-14T09:57:57;4.57;;;1.70;;
19183;SDS011;9724;51.194;6.856;2023-06-14T10:00:24;17.63;;;2.10;;
19183;SDS011;9724;51.194;6.856;2023-06-14T10:02:53;2.10;;;1.57;;
19183;SDS011;9724;51.194;6.856;2023-06-14T10:05:21;2.47;;;1.80;;
19183;SDS011;9724;51.194;6.856;2023-06-14T10:07:51;5.03;;;1.70;;
19183;SDS011;9724;51.194;6.856;2023-06-14T10:10:19;5.47;;;2.10;;
19183;SDS011;9724;51.194;6.856;2023-06-14T10:12:45;1.60;;;1.50;;
19183;SDS011;9724;51.194;6.856;2023-06-14T10:15:15;3.20;;;1.97;;
19183;SDS011;9724;51.194;6.856;2023-06-14T10:17:44;2.23;;;1.70;;
19183;SDS011;9724;51.194;6.856;2023-06-14T10:20:19;2.60;;;1.87;;
19183;SDS011;9724;51.194;6.856;2023-06-14T10:22:52;2.33;;;1.73;;
19183;SDS011;9724;51.194;6.856;2023-06-14T10:25:26;2.10;;;1.90;;
19183;SDS011;9724;51.194;6.856;2023-06-14T10:28:02;3.27;;;1.70;;
19183;SDS011;9724;51.194;6.856;2023-06-14T10:30:30;3.60;;;1.97;;
19183;SDS011;9724;51.194;6.856;2023-06-14T10:33:06;1.67;;;1.57;;
19183;SDS011;9724;51.194;6.856;2023-06-14T10:35:33;4.83;;;1.70;;
19183;SDS011;9724;51.194;6.856;2023-06-14T10:38:06;3.40;;;2.30;;
19183;SDS011;9724;51.194;6.856;2023-06-14T10:40:33;1.87;;;1.77;;
19183;SDS011;9724;51.194;6.856;2023-06-14T10:43:00;3.23;;;1.73;;
19183;SDS011;9724;51.194;6.856;2023-06-14T10:45:26;4.87;;;1.63;;
19183;SDS011;9724;51.194;6.856;2023-06-14T10:47:56;5.73;;;1.73;;
19183;SDS011;9724;51.194;6.856;2023-06-14T10:50:27;3.80;;;1.50;;
19183;SDS011;9724;51.194;6.856;2023-06-14T10:52:54;3.33;;;1.90;;
19183;SDS011;9724;51.194;6.856;2023-06-14T10:55:20;2.57;;;1.80;;
19183;SDS011;9724;51.194;6.856;2023-06-14T10:57:49;1.97;;;1.87;;
19183;SDS011;9724;51.194;6.856;2023-06-14T11:00:19;3.07;;;1.67;;
19183;SDS011;9724;51.194;6.856;2023-06-14T11:05:54;6.03;;;1.97;;
19183;SDS011;9724;51.194;6.856;2023-06-14T11:11:14;5.70;;;1.90;;
19183;SDS011;9724;51.194;6.856;2023-06-14T11:13:42;1.97;;;1.80;;
19183;SDS011;9724;51.194;6.856;2023-06-14T11:16:10;8.97;;;2.10;;
19183;SDS011;9724;51.194;6.856;2023-06-14T11:18:37;5.10;;;1.70;;
19183;SDS011;9724;51.194;6.856;2023-06-14T11:21:04;5.77;;;1.83;;
19183;SDS011;9724;51.194;6.856;2023-06-14T11:23:31;1.80;;;1.70;;
19183;SDS011;9724;51.194;6.856;2023-06-14T11:25:57;2.77;;;1.87;;
19183;SDS011;9724;51.194;6.856;2023-06-14T11:28:34;4.23;;;1.80;;
19183;SDS011;9724;51.194;6.856;2023-06-14T11:31:01;3.03;;;1.80;;
19183;SDS011;9724;51.194;6.856;2023-06-14T11:33:28;3.30;;;1.80;;
19183;SDS011;9724;51.194;6.856;2023-06-14T11:35:55;6.67;;;1.97;;
19183;SDS011;9724;51.194;6.856;2023-06-14T11:38:22;4.73;;;1.83;;
19183;SDS011;9724;51.194;6.856;2023-06-14T11:40:48;4.67;;;1.80;;
19183;SDS011;9724;51.194;6.856;2023-06-14T11:43:14;2.93;;;1.70;;
19183;SDS011;9724;51.194;6.856;2023-06-14T11:45:41;6.03;;;1.70;;
19183;SDS011;9724;51.194;6.856;2023-06-14T11:48:07;4.30;;;1.80;;
19183;SDS011;9724;51.194;6.856;2023-06-14T11:50:33;1.90;;;1.80;;
19183;SDS011;9724;51.194;6.856;2023-06-14T11:53:04;2.63;;;1.63;;
19183;SDS011;9724;51.194;6.856;2023-06-14T11:55:35;2.97;;;1.60;;
19183;SDS011;9724;51.194;6.856;2023-06-14T11:58:02;4.00;;;1.43;;
19183;SDS011;9724;51.194;6.856;2023-06-14T12:00:29;3.73;;;1.70;;
19183;SDS011;9724;51.194;6.856;2023-06-14T12:02:56;7.50;;;1.73;;
19183;SDS011;9724;51.194;6.856;2023-06-14T12:05:23;4.37;;;1.50;;
19183;SDS011;9724;51.194;6.856;2023-06-14T12:07:57;1.80;;;1.70;;
19183;SDS011;9724;51.194;6.856;2023-06-14T12:10:24;3.27;;;1.53;;
19183;SDS011;9724;51.194;6.856;2023-06-14T12:12:56;1.57;;;1.43;;
19183;SDS011;9724;51.194;6.856;2023-06-14T12:15:23;1.40;;;1.30;;
19183;SDS011;9724;51.194;6.856;2023-06-14T12:17:49;3.40;;;1.40;;
19183;SDS011;9724;51.194;6.856;2023-06-14T12:20:16;6.00;;;1.60;;
19183;SDS011;9724;51.194;6.856;2023-06-14T12:22:50;3.03;;;1.40;;
19183;SDS011;9724;51.194;6.856;2023-06-14T12:25:24;1.33;;;1.33;;
19183;SDS011;9724;51.194;6.856;2023-06-14T12:27:53;3.30;;;1.50;;
19183;SDS011;9724;51.194;6.856;2023-06-14T12:30:20;5.93;;;1.47;;
19183;SDS011;9724;51.194;6.856;2023-06-14T12:32:46;5.30;;;1.40;;
19183;SDS011;9724;51.194;6.856;2023-06-14T12:35:12;1.70;;;1.50;;
19183;SDS011;9724;51.194;6.856;2023-06-14T12:37:39;4.93;;;1.40;;
19183;SDS011;9724;51.194;6.856;2023-06-14T12:40:06;2.53;;;1.30;;
19183;SDS011;9724;51.194;6.856;2023-06-14T12:42:34;4.27;;;1.87;;
19183;SDS011;9724;51.194;6.856;2023-06-14T12:45:01;3.30;;;1.50;;
19183;SDS011;9724;51.194;6.856;2023-06-14T12:47:28;1.40;;;1.40;;
19183;SDS011;9724;51.194;6.856;2023-06-14T12:49:55;2.33;;;1.20;;
19183;SDS011;9724;51.194;6.856;2023-06-14T12:52:21;6.10;;;1.40;;
19183;SDS011;9724;51.194;6.856;2023-06-14T12:54:47;1.37;;;1.30;;
19183;SDS011;9724;51.194;6.856;2023-06-14T12:57:14;2.10;;;1.40;;
19183;SDS011;9724;51.194;6.856;2023-06-14T12:59:40;4.53;;;1.63;;
19183;SDS011;9724;51.194;6.856;2023-06-14T13:02:11;2.83;;;1.60;;
19183;SDS011;9724;51.194;6.856;2023-06-14T13:04:39;4.77;;;1.60;;
19183;SDS011;9724;51.194;6.856;2023-06-14T13:07:05;3.40;;;1.50;;
19183;SDS011;9724;51.194;6.856;2023-06-14T13:09:31;1.70;;;1.60;;
19183;SDS011;9724;51.194;6.856;2023-06-14T13:11:57;5.30;;;1.60;;
19183;SDS011;9724;51.194;6.856;2023-06-14T13:14:24;4.37;;;1.63;;
19183;SDS011;9724;51.194;6.856;2023-06-14T13:16:51;5.70;;;1.60;;
19183;SDS011;9724;51.194;6.856;2023-06-14T13:19:18;2.10;;;1.83;;
19183;SDS011;9724;51.194;6.856;2023-06-14T13:21:45;4.10;;;1.80;;
19183;SDS011;9724;51.194;6.856;2023-06-14T13:24:11;4.50;;;1.87;;
19183;SDS011;9724;51.194;6.856;2023-06-14T13:26:37;6.80;;;1.77;;
19183;SDS011;9724;51.194;6.856;2023-06-14T13:29:04;4.17;;;1.70;;
19183;SDS011;9724;51.194;6.856;2023-06-14T13:31:30;1.60;;;1.60;;
19183;SDS011;9724;51.194;6.856;2023-06-14T13:33:56;1.63;;;1.53;;
19183;SDS011;9724;51.194;6.856;2023-06-14T13:36:23;9.00;;;2.33;;
19183;SDS011;9724;51.194;6.856;2023-06-14T13:38:50;1.70;;;1.60;;
19183;SDS011;9724;51.194;6.856;2023-06-14T13:41:18;2.03;;;1.83;;
19183;SDS011;9724;51.194;6.856;2023-06-14T13:43:44;3.90;;;2.07;;
19183;SDS011;9724;51.194;6.856;2023-06-14T13:46:10;4.17;;;2.03;;
19183;SDS011;9724;51.194;6.856;2023-06-14T13:48:37;3.13;;;1.70;;
19183;SDS011;9724;51.194;6.856;2023-06-14T13:51:03;5.27;;;2.00;;
19183;SDS011;9724;51.194;6.856;2023-06-14T13:53:30;3.13;;;2.10;;
19183;SDS011;9724;51.194;6.856;2023-06-14T13:55:56;6.50;;;1.77;;
19183;SDS011;9724;51.194;6.856;2023-06-14T13:58:23;4.37;;;2.03;;
19183;SDS011;9724;51.194;6.856;2023-06-14T14:00:50;3.13;;;1.93;;
19183;SDS011;9724;51.194;6.856;2023-06-14T14:03:16;3.33;;;1.80;;
19183;SDS011;9724;51.194;6.856;2023-06-14T14:05:45;2.73;;;1.80;;
19183;SDS011;9724;51.194;6.856;2023-06-14T14:08:11;4.53;;;1.80;;
19183;SDS011;9724;51.194;6.856;2023-06-14T14:10:38;5.03;;;2.00;;
19183;SDS011;9724;51.194;6.856;2023-06-14T14:13:05;3.60;;;1.83;;
19183;SDS011;9724;51.194;6.856;2023-06-14T14:15:31;4.90;;;1.70;;
19183;SDS011;9724;51.194;6.856;2023-06-14T14:18:00;5.90;;;2.00;;
19183;SDS011;9724;51.194;6.856;2023-06-14T14:20:30;2.13;;;1.97;;
19183;SDS011;9724;51.194;6.856;2023-06-14T14:22:56;7.73;;;2.17;;
19183;SDS011;9724;51.194;6.856;2023-06-14T14:25:23;7.97;;;1.83;;
19183;SDS011;9724;51.194;6.856;2023-06-14T14:27:50;4.47;;;1.77;;
19183;SDS011;9724;51.194;6.856;2023-06-14T14:30:16;2.53;;;1.70;;
19183;SDS011;9724;51.194;6.856;2023-06-14T14:32:45;2.57;;;1.90;;
19183;SDS011;9724;51.194;6.856;2023-06-14T14:35:12;5.60;;;1.90;;
19183;SDS011;9724;51.194;6.856;2023-06-14T14:37:38;8.13;;;2.20;;
19183;SDS011;9724;51.194;6.856;2023-06-14T14:40:05;5.80;;;1.90;;
19183;SDS011;9724;51.194;6.856;2023-06-14T14:42:34;7.80;;;1.97;;
19183;SDS011;9724;51.194;6.856;2023-06-14T14:45:01;2.07;;;1.97;;
19183;SDS011;9724;51.194;6.856;2023-06-14T14:47:27;4.57;;;1.77;;
19183;SDS011;9724;51.194;6.856;2023-06-14T14:49:54;2.63;;;2.00;;
19183;SDS011;9724;51.194;6.856;2023-06-14T14:52:20;2.90;;;1.83;;
19183;SDS011;9724;51.194;6.856;2023-06-14T14:54:50;2.50;;;2.20;;
19183;SDS011;9724;51.194;6.856;2023-06-14T14:57:16;7.60;;;2.00;;
19183;SDS011;9724;51.194;6.856;2023-06-14T14:59:42;2.57;;;1.57;;
19183;SDS011;9724;51.194;6.856;2023-06-14T15:02:09;4.93;;;2.03;;
19183;SDS011;9724;51.194;6.856;2023-06-14T15:04:36;4.57;;;2.30;;
19183;SDS011;9724;51.194;6.856;2023-06-14T15:07:02;6.33;;;2.00;;